createdAt,value
2023-03-28T00:01:11.905Z,17.72
2023-03-28T00:03:41.178Z,17.72
2023-03-28T00:06:16.868Z,17.73
2023-03-28T00:08:48.261Z,17.71
2023-03-28T00:11:20.273Z,17.72
2023-03-28T00:13:58.246Z,17.70
2023-03-28T00:16:39.582Z,17.71
2023-03-28T00:19:11.901Z,17.70
2023-03-28T00:21:41.696Z,17.70
2023-03-28T00:24:14.025Z,17.68
2023-03-28T00:26:43.636Z,17.67
2023-03-28T00:29:21.525Z,17.67
2023-03-28T00:31:50.506Z,17.66
2023-03-28T00:34:19.290Z,17.66
2023-03-28T00:36:47.714Z,17.66
2023-03-28T00:39:16.651Z,17.65
2023-03-28T00:41:45.448Z,17.67
2023-03-28T00:44:51.968Z,17.66
2023-03-28T00:47:44.083Z,17.65
2023-03-28T00:50:37.025Z,17.66
2023-03-28T00:53:15.896Z,17.64
2023-03-28T00:55:56.167Z,17.65
2023-03-28T00:58:27.192Z,17.62
2023-03-28T01:00:56.524Z,17.63
2023-03-28T01:03:30.757Z,17.62
2023-03-28T01:06:02.035Z,17.61
2023-03-28T01:08:44.549Z,17.59
2023-03-28T01:11:13.731Z,17.59
2023-03-28T01:13:46.583Z,17.59
2023-03-28T01:16:16.155Z,17.58
2023-03-28T01:18:51.843Z,17.59
2023-03-28T01:22:06.761Z,17.59
2023-03-28T01:25:14.999Z,17.59
2023-03-28T01:28:03.869Z,17.57
2023-03-28T01:31:16.985Z,17.56
2023-03-28T01:34:36.036Z,17.56
2023-03-28T01:37:37.526Z,17.55
2023-03-28T01:40:37.358Z,17.53
2023-03-28T01:43:16.404Z,17.54
2023-03-28T01:45:59.506Z,17.54
2023-03-28T01:48:43.205Z,17.54
2023-03-28T01:51:57.677Z,17.52
2023-03-28T01:54:33.674Z,17.53
2023-03-28T01:57:12.984Z,17.51
2023-03-28T01:59:49.423Z,17.49
2023-03-28T02:03:00.856Z,17.50
2023-03-28T02:05:36.105Z,17.51
2023-03-28T02:08:11.054Z,17.50
2023-03-28T02:10:44.645Z,17.47
2023-03-28T02:14:07.540Z,17.51
2023-03-28T02:17:09.659Z,17.47
2023-03-28T02:20:00.009Z,17.48
2023-03-28T02:23:14.499Z,17.45
2023-03-28T02:26:09.354Z,17.45
2023-03-28T02:28:58.237Z,17.43
2023-03-28T02:31:50.483Z,17.44
2023-03-28T02:34:20.236Z,17.43
2023-03-28T02:36:59.722Z,17.43
2023-03-28T02:39:46.965Z,17.41
2023-03-28T02:42:43.090Z,17.42
2023-03-28T02:45:22.616Z,17.40
2023-03-28T02:48:02.637Z,17.39
2023-03-28T02:51:30.577Z,17.39
2023-03-28T02:54:43.398Z,17.37
2023-03-28T02:57:35.279Z,17.40
2023-03-28T03:00:12.582Z,17.38
2023-03-28T03:02:51.837Z,17.39
2023-03-28T03:05:22.265Z,17.38
2023-03-28T03:07:51.702Z,17.39
2023-03-28T03:10:22.432Z,17.35
2023-03-28T03:12:51.107Z,17.35
2023-03-28T03:15:20.241Z,17.34
2023-03-28T03:17:59.118Z,17.35
2023-03-28T03:20:34.364Z,17.32
2023-03-28T03:23:04.609Z,17.30
2023-03-28T03:25:36.122Z,17.31
2023-03-28T03:28:25.199Z,17.31
2023-03-28T03:30:54.145Z,17.31
2023-03-28T03:33:42.727Z,17.31
2023-03-28T03:36:17.301Z,17.29
2023-03-28T03:38:48.028Z,17.29
2023-03-28T03:41:22.939Z,17.29
2023-03-28T03:43:51.624Z,17.28
2023-03-28T03:46:20.702Z,17.26
2023-03-28T03:48:50.899Z,17.27
2023-03-28T03:51:20.490Z,17.25
2023-03-28T03:53:52.304Z,17.24
2023-03-28T03:56:24.983Z,17.24
2023-03-28T03:59:02.533Z,17.23
2023-03-28T04:01:34.530Z,17.24
2023-03-28T04:04:26.627Z,17.22
2023-03-28T04:07:21.576Z,17.24
2023-03-28T04:09:53.075Z,17.22
2023-03-28T04:12:21.974Z,17.21
2023-03-28T04:14:52.642Z,17.21
2023-03-28T04:17:36.614Z,17.19
2023-03-28T04:20:13.470Z,17.17
2023-03-28T04:23:08.674Z,17.20
2023-03-28T04:25:41.910Z,17.17
2023-03-28T04:28:28.315Z,17.19
2023-03-28T04:31:05.326Z,17.18
2023-03-28T04:34:00.637Z,17.14
2023-03-28T04:36:32.424Z,17.17
2023-03-28T04:39:04.970Z,17.16
2023-03-28T04:41:55.777Z,17.14
2023-03-28T04:44:24.654Z,17.13
2023-03-28T04:47:01.225Z,17.12
2023-03-28T04:49:30.137Z,17.12
2023-03-28T04:51:58.774Z,17.12
2023-03-28T04:54:27.639Z,17.12
2023-03-28T04:57:07.496Z,17.11
2023-03-28T04:59:47.846Z,17.11
2023-03-28T05:02:30.661Z,17.10
2023-03-28T05:05:04.557Z,17.09
2023-03-28T05:07:34.499Z,17.10
2023-03-28T05:10:03.874Z,17.10
2023-03-28T05:12:37.816Z,17.10
2023-03-28T05:15:07.551Z,17.09
2023-03-28T05:17:48.049Z,17.09
2023-03-28T05:20:22.850Z,17.08
2023-03-28T05:22:56.166Z,17.08
2023-03-28T05:25:26.386Z,17.07
2023-03-28T05:27:56.848Z,17.07
2023-03-28T05:30:26.616Z,17.08
2023-03-28T05:32:58.786Z,17.07
2023-03-28T05:35:30.322Z,17.05
2023-03-28T05:37:59.173Z,17.06
2023-03-28T05:40:27.889Z,17.06
2023-03-28T05:42:56.460Z,17.09
2023-03-28T05:45:25.891Z,17.06
2023-03-28T05:48:01.424Z,17.06
2023-03-28T05:50:31.970Z,17.07
2023-03-28T05:53:06.723Z,17.05
2023-03-28T05:55:36.121Z,17.06
2023-03-28T05:58:06.490Z,17.08
2023-03-28T06:00:39.256Z,17.07
2023-03-28T06:03:09.744Z,17.06
2023-03-28T06:05:46.687Z,17.05
2023-03-28T06:08:23.740Z,17.05
2023-03-28T06:10:52.809Z,17.06
2023-03-28T06:13:29.225Z,17.05
2023-03-28T06:15:58.431Z,17.05
2023-03-28T06:18:33.391Z,17.06
2023-03-28T06:21:02.643Z,17.04
2023-03-28T06:23:31.338Z,17.00
2023-03-28T06:26:02.851Z,16.95
2023-03-28T06:28:38.797Z,16.91
2023-03-28T06:31:30.243Z,16.87
2023-03-28T06:33:58.792Z,16.84
2023-03-28T06:36:27.634Z,16.81
2023-03-28T06:38:58.572Z,16.77
2023-03-28T06:41:30.142Z,16.78
2023-03-28T06:43:59.190Z,16.80
2023-03-28T06:46:46.772Z,16.78
2023-03-28T06:49:15.510Z,16.77
2023-03-28T06:52:13.461Z,16.75
2023-03-28T06:54:44.432Z,16.72
2023-03-28T06:57:14.520Z,16.76
2023-03-28T06:59:43.751Z,16.76
2023-03-28T07:02:19.256Z,16.76
2023-03-28T07:04:48.353Z,16.75
2023-03-28T07:07:17.698Z,16.72
2023-03-28T07:09:49.126Z,16.74
2023-03-28T07:12:19.193Z,16.72
2023-03-28T07:14:47.906Z,16.74
2023-03-28T07:17:16.989Z,16.77
2023-03-28T07:19:46.255Z,16.72
2023-03-28T07:22:15.639Z,16.75
2023-03-28T07:24:44.097Z,16.74
2023-03-28T07:27:16.596Z,16.78
2023-03-28T07:29:47.475Z,16.75
2023-03-28T07:32:17.289Z,16.73
2023-03-28T07:34:47.433Z,16.71
2023-03-28T07:37:22.918Z,16.76
2023-03-28T07:40:14.675Z,16.82
2023-03-28T07:42:43.975Z,16.86
2023-03-28T07:45:12.562Z,16.86
2023-03-28T07:47:41.849Z,16.88
2023-03-28T07:50:10.725Z,16.92
2023-03-28T07:52:45.874Z,16.93
2023-03-28T07:55:15.264Z,16.91
2023-03-28T07:57:49.132Z,16.76
2023-03-28T08:00:28.550Z,16.63
2023-03-28T08:03:20.352Z,16.65
2023-03-28T08:05:52.289Z,16.59
2023-03-28T08:08:23.388Z,16.74
2023-03-28T08:11:14.963Z,16.80
2023-03-28T08:13:44.063Z,16.76
2023-03-28T08:16:23.626Z,16.76
2023-03-28T08:19:09.372Z,16.75
2023-03-28T08:21:48.970Z,16.86
2023-03-28T08:24:28.858Z,16.91
2023-03-28T08:27:09.281Z,16.83
2023-03-28T08:29:38.037Z,16.63
2023-03-28T08:32:07.999Z,16.59
2023-03-28T08:34:38.293Z,16.68
2023-03-28T08:37:13.247Z,16.75
2023-03-28T08:39:45.937Z,16.80
2023-03-28T08:42:46.859Z,16.68
2023-03-28T08:45:38.745Z,16.57
2023-03-28T08:48:31.453Z,16.56
2023-03-28T08:51:28.925Z,16.64
2023-03-28T08:54:14.850Z,16.59
2023-03-28T08:56:55.957Z,16.56
2023-03-28T08:59:48.419Z,16.74
2023-03-28T09:02:21.872Z,16.84
2023-03-28T09:04:50.867Z,16.91
2023-03-28T09:07:56.204Z,16.94
2023-03-28T09:10:42.817Z,16.91
2023-03-28T09:13:52.495Z,16.86
2023-03-28T09:16:57.575Z,16.86
2023-03-28T09:19:48.248Z,16.98
2023-03-28T09:23:01.342Z,17.01
2023-03-28T09:25:58.872Z,16.92
2023-03-28T09:28:55.034Z,16.76
2023-03-28T09:31:28.280Z,16.65
2023-03-28T09:34:00.602Z,16.71
2023-03-28T09:36:48.916Z,16.75
2023-03-28T09:39:54.675Z,16.88
2023-03-28T09:42:56.006Z,16.95
2023-03-28T09:45:36.438Z,16.99
2023-03-28T09:48:28.854Z,16.91
2023-03-28T09:51:02.630Z,16.82
2023-03-28T09:53:34.563Z,16.90
2023-03-28T09:56:16.983Z,16.96
2023-03-28T09:58:59.942Z,16.96
2023-03-28T10:01:49.412Z,16.82
2023-03-28T10:04:39.352Z,16.84
2023-03-28T10:07:43.267Z,16.81
2023-03-28T10:10:25.346Z,16.69
2023-03-28T10:13:10.050Z,16.49
2023-03-28T10:15:47.219Z,16.54
2023-03-28T10:18:34.071Z,16.63
2023-03-28T10:21:30.457Z,16.63
2023-03-28T10:24:13.314Z,16.65
2023-03-28T10:26:44.510Z,16.68
2023-03-28T10:29:13.117Z,16.71
2023-03-28T10:31:47.922Z,16.80
2023-03-28T10:34:39.303Z,16.82
2023-03-28T10:37:37.543Z,16.75
2023-03-28T10:40:32.553Z,16.83
2023-03-28T10:43:14.850Z,16.77
2023-03-28T10:45:51.082Z,16.67
2023-03-28T10:48:39.694Z,16.73
2023-03-28T10:51:22.258Z,16.73
2023-03-28T10:54:06.766Z,16.79
2023-03-28T10:56:52.951Z,16.65
2023-03-28T11:00:07.005Z,16.58
2023-03-28T11:03:06.477Z,16.68
2023-03-28T11:06:08.965Z,16.68
2023-03-28T11:09:10.912Z,16.71
2023-03-28T11:12:56.780Z,16.73
2023-03-28T11:15:41.422Z,16.76
2023-03-28T11:24:29.422Z,16.69
2023-03-28T11:27:54.484Z,16.74
2023-03-28T11:30:36.501Z,16.75
2023-03-28T11:33:44.115Z,16.74
2023-03-28T11:36:53.735Z,16.73
2023-03-28T11:39:35.299Z,16.77
2023-03-28T11:42:10.316Z,16.74
2023-03-28T11:45:12.931Z,16.69
2023-03-28T11:48:19.527Z,16.72
2023-03-28T11:51:19.504Z,16.80
2023-03-28T11:54:32.474Z,16.84
2023-03-28T11:57:13.228Z,16.87
2023-03-28T12:00:33.819Z,16.87
2023-03-28T12:03:25.956Z,16.84
2023-03-28T12:06:21.611Z,16.82
2023-03-28T12:09:13.659Z,16.84
2023-03-28T12:12:02.485Z,16.86
2023-03-28T12:14:45.032Z,16.85
2023-03-28T12:17:55.536Z,16.81
2023-03-28T12:21:08.451Z,16.54
2023-03-28T12:24:30.092Z,16.65
2023-03-28T12:27:09.835Z,16.70
2023-03-28T12:29:56.881Z,16.75
2023-03-28T12:32:43.902Z,16.81
2023-03-28T12:35:51.392Z,16.77
2023-03-28T12:38:29.392Z,16.81
2023-03-28T12:41:23.233Z,16.91
2023-03-28T12:44:21.028Z,16.93
2023-03-28T12:46:56.956Z,17.00
2023-03-28T12:49:48.455Z,17.07
2023-03-28T12:52:32.822Z,17.13
2023-03-28T12:55:31.762Z,16.94
2023-03-28T12:58:24.015Z,16.94
2023-03-28T13:01:07.442Z,16.81
2023-03-28T13:04:00.538Z,16.83
2023-03-28T13:07:01.332Z,16.88
2023-03-28T13:10:14.995Z,17.06
2023-03-28T13:13:10.988Z,17.07
2023-03-28T13:15:59.393Z,17.15
2023-03-28T13:18:31.983Z,17.17
2023-03-28T13:21:04.562Z,17.17
2023-03-28T13:23:46.364Z,17.30
2023-03-28T13:26:15.219Z,17.32
2023-03-28T13:28:47.271Z,17.24
2023-03-28T13:31:25.850Z,17.17
2023-03-28T13:34:01.193Z,17.15
2023-03-28T13:36:34.534Z,17.27
2023-03-28T13:39:10.074Z,17.20
2023-03-28T13:41:42.008Z,17.16
2023-03-28T13:44:20.719Z,17.22
2023-03-28T13:46:50.778Z,17.26
2023-03-28T13:49:51.506Z,17.44
2023-03-28T13:52:24.224Z,17.46
2023-03-28T13:54:55.883Z,17.48
2023-03-28T13:57:28.006Z,17.44
2023-03-28T14:00:01.686Z,17.43
2023-03-28T14:02:52.950Z,17.55
2023-03-28T14:05:30.727Z,17.56
2023-03-28T14:08:24.244Z,17.56
2023-03-28T14:10:53.038Z,17.47
2023-03-28T14:13:28.908Z,17.45
2023-03-28T14:15:57.511Z,17.41
2023-03-28T14:18:36.590Z,17.47
2023-03-28T14:21:08.613Z,17.34
2023-03-28T14:23:39.869Z,17.28
2023-03-28T14:26:18.942Z,17.37
2023-03-28T14:28:47.927Z,17.37
2023-03-28T14:31:30.431Z,17.35
2023-03-28T14:34:01.233Z,17.21
2023-03-28T14:36:31.411Z,17.06
2023-03-28T14:39:13.832Z,17.08
2023-03-28T14:41:42.618Z,17.09
2023-03-28T14:44:12.910Z,17.21
2023-03-28T14:46:41.433Z,17.04
2023-03-28T14:49:16.184Z,17.15
2023-03-28T14:51:48.803Z,17.28
2023-03-28T14:54:27.894Z,17.42
2023-03-28T14:56:57.489Z,17.44
2023-03-28T14:59:41.022Z,16.94
2023-03-28T15:02:26.610Z,16.71
2023-03-28T15:04:59.082Z,16.99
2023-03-28T15:07:28.544Z,17.15
2023-03-28T15:10:10.459Z,16.92
2023-03-28T15:13:18.397Z,17.04
2023-03-28T15:15:47.819Z,17.01
2023-03-28T15:18:25.429Z,17.00
2023-03-28T15:20:57.383Z,17.14
2023-03-28T15:23:32.265Z,17.27
2023-03-28T15:26:14.261Z,17.36
2023-03-28T15:28:42.780Z,17.35
2023-03-28T15:31:11.959Z,17.38
2023-03-28T15:33:40.449Z,17.42
2023-03-28T15:36:32.821Z,17.45
2023-03-28T15:39:22.919Z,17.37
2023-03-28T15:42:20.330Z,17.51
2023-03-28T15:44:57.951Z,17.38
2023-03-28T15:47:32.088Z,17.53
2023-03-28T15:50:07.013Z,17.23
2023-03-28T15:52:35.952Z,17.13
2023-03-28T15:55:04.824Z,17.21
2023-03-28T15:57:33.701Z,17.36
2023-03-28T16:00:02.234Z,17.09
2023-03-28T16:02:43.917Z,17.06
2023-03-28T16:05:15.496Z,17.12
2023-03-28T16:07:48.640Z,17.19
2023-03-28T16:10:21.816Z,17.28
2023-03-28T16:13:14.657Z,17.28
2023-03-28T16:16:07.110Z,17.26
2023-03-28T16:18:58.518Z,17.25
2023-03-28T16:21:27.560Z,17.25
2023-03-28T16:23:56.458Z,17.26
2023-03-28T16:26:25.029Z,17.17
2023-03-28T16:28:54.281Z,17.09
2023-03-28T16:31:22.884Z,17.17
2023-03-28T16:33:51.840Z,17.23
2023-03-28T16:36:20.491Z,17.33
2023-03-28T16:38:49.982Z,17.36
2023-03-28T16:41:18.447Z,17.46
2023-03-28T16:43:47.950Z,17.51
2023-03-28T16:46:16.679Z,17.55
2023-03-28T16:48:46.045Z,17.51
2023-03-28T16:51:14.654Z,17.50
2023-03-28T16:53:43.580Z,17.55
2023-03-28T16:56:12.473Z,17.67
2023-03-28T16:58:42.255Z,17.71
2023-03-28T17:01:19.310Z,17.59
2023-03-28T17:03:49.180Z,17.45
2023-03-28T17:06:18.136Z,17.41
2023-03-28T17:08:47.147Z,17.34
2023-03-28T17:11:15.784Z,17.40
2023-03-28T17:13:47.912Z,17.43
2023-03-28T17:16:17.132Z,17.44
2023-03-28T17:18:46.231Z,17.43
2023-03-28T17:21:15.183Z,17.46
2023-03-28T17:23:45.910Z,17.47
2023-03-28T17:26:14.864Z,17.45
2023-03-28T17:28:44.272Z,17.44
2023-03-28T17:31:16.945Z,17.44
2023-03-28T17:33:47.334Z,17.39
2023-03-28T17:36:25.418Z,17.41
2023-03-28T17:38:56.929Z,17.41
2023-03-28T17:41:28.070Z,17.40
2023-03-28T17:43:57.646Z,17.38
2023-03-28T17:46:26.944Z,17.40
2023-03-28T17:48:56.178Z,17.39
2023-03-28T17:51:24.872Z,17.40
2023-03-28T17:53:54.321Z,17.41
2023-03-28T17:56:24.705Z,17.41
2023-03-28T17:58:53.616Z,17.41
2023-03-28T18:01:22.625Z,17.42
2023-03-28T18:03:51.783Z,17.43
2023-03-28T18:06:40.569Z,17.43
2023-03-28T18:09:09.487Z,17.42
2023-03-28T18:11:39.602Z,17.41
2023-03-28T18:14:08.988Z,17.43
2023-03-28T18:16:38.962Z,17.43
2023-03-28T18:19:12.687Z,17.43
2023-03-28T18:21:41.547Z,17.44
2023-03-28T18:24:12.540Z,17.42
2023-03-28T18:26:41.316Z,17.43
2023-03-28T18:29:11.732Z,17.47
2023-03-28T18:31:41.869Z,17.43
2023-03-28T18:34:12.150Z,17.42
2023-03-28T18:36:42.270Z,17.43
2023-03-28T18:39:11.792Z,17.44
2023-03-28T18:41:40.421Z,17.44
2023-03-28T18:44:11.387Z,17.42
2023-03-28T18:46:40.576Z,17.44
2023-03-28T18:49:09.928Z,17.41
2023-03-28T18:51:39.910Z,17.44
2023-03-28T18:54:09.343Z,17.43
2023-03-28T18:56:38.239Z,17.44
2023-03-28T18:59:07.259Z,17.42
2023-03-28T19:01:38.336Z,17.44
2023-03-28T19:04:08.135Z,17.42
2023-03-28T19:06:36.940Z,17.41
2023-03-28T19:09:06.510Z,17.41
2023-03-28T19:11:35.280Z,17.43
2023-03-28T19:14:04.441Z,17.42
2023-03-28T19:16:33.165Z,17.42
2023-03-28T19:19:02.761Z,17.43
2023-03-28T19:21:31.616Z,17.42
2023-03-28T19:24:01.104Z,17.46
2023-03-28T19:26:30.239Z,17.44
2023-03-28T19:28:59.588Z,17.44
2023-03-28T19:31:28.459Z,17.43
2023-03-28T19:33:57.522Z,17.47
2023-03-28T19:36:26.477Z,17.42
2023-03-28T19:38:55.759Z,17.39
2023-03-28T19:41:24.760Z,17.41
2023-03-28T19:43:55.607Z,17.40
2023-03-28T19:46:35.260Z,17.40
2023-03-28T19:49:06.987Z,17.39
2023-03-28T19:51:36.312Z,17.40
2023-03-28T19:54:05.801Z,17.39
2023-03-28T19:56:35.036Z,17.37
2023-03-28T19:59:04.681Z,17.37
2023-03-28T20:01:33.780Z,17.34
2023-03-28T20:04:03.021Z,17.34
2023-03-28T20:06:31.729Z,17.33
2023-03-28T20:09:01.404Z,17.31
2023-03-28T20:11:30.339Z,17.30
2023-03-28T20:13:59.746Z,17.29
2023-03-28T20:16:29.076Z,17.30
2023-03-28T20:18:58.716Z,17.29
2023-03-28T20:21:30.637Z,17.28
2023-03-28T20:24:01.117Z,17.29
2023-03-28T20:26:29.729Z,17.27
2023-03-28T20:28:59.713Z,17.28
2023-03-28T20:31:28.712Z,17.27
2023-03-28T20:33:57.650Z,17.27
2023-03-28T20:36:26.441Z,17.27
2023-03-28T20:38:56.717Z,17.27
2023-03-28T20:41:27.927Z,17.26
2023-03-28T20:44:03.958Z,17.27
2023-03-28T20:46:34.952Z,17.26
2023-03-28T20:49:06.414Z,17.25
2023-03-28T20:51:39.206Z,17.26
2023-03-28T20:54:09.110Z,17.25
2023-03-28T20:56:37.733Z,17.25
2023-03-28T20:59:06.817Z,17.24
2023-03-28T21:01:39.734Z,17.23
2023-03-28T21:04:08.824Z,17.23
2023-03-28T21:06:38.499Z,17.25
2023-03-28T21:09:13.708Z,17.24
2023-03-28T21:11:42.556Z,17.23
2023-03-28T21:14:13.721Z,17.24
2023-03-28T21:16:42.724Z,17.24
2023-03-28T21:19:11.731Z,17.23
2023-03-28T21:21:40.754Z,17.22
2023-03-28T21:24:09.664Z,17.22
2023-03-28T21:26:38.220Z,17.23
2023-03-28T21:29:07.060Z,17.23
2023-03-28T21:31:35.594Z,17.22
2023-03-28T21:34:04.520Z,17.22
2023-03-28T21:36:33.596Z,17.20
2023-03-28T21:39:02.830Z,17.21
2023-03-28T21:41:31.441Z,17.21
2023-03-28T21:44:00.822Z,17.20
2023-03-28T21:46:29.438Z,17.20
2023-03-28T21:48:58.478Z,17.21
2023-03-28T21:51:27.243Z,17.20
2023-03-28T21:53:56.139Z,17.21
2023-03-28T21:56:24.748Z,17.20
2023-03-28T21:58:53.626Z,17.19
2023-03-28T22:01:22.109Z,17.19
2023-03-28T22:03:51.212Z,17.19
2023-03-28T22:06:19.689Z,17.19
2023-03-28T22:08:52.770Z,17.17
2023-03-28T22:11:28.300Z,17.17
2023-03-28T22:14:02.577Z,17.16
2023-03-28T22:16:35.153Z,17.17
2023-03-28T22:19:06.076Z,17.17
2023-03-28T22:21:34.826Z,17.15
2023-03-28T22:24:06.414Z,17.17
2023-03-28T22:26:36.226Z,17.16
2023-03-28T22:29:05.312Z,17.15
2023-03-28T22:31:33.981Z,17.15
2023-03-28T22:34:03.094Z,17.15
2023-03-28T22:36:31.752Z,17.14
2023-03-28T22:39:00.795Z,17.14
2023-03-28T22:41:32.240Z,17.14
2023-03-28T22:44:01.434Z,17.13
2023-03-28T22:46:30.204Z,17.13
2023-03-28T22:48:59.074Z,17.14
2023-03-28T22:51:28.392Z,17.13
2023-03-28T22:54:00.655Z,17.12
2023-03-28T22:56:29.447Z,17.12
2023-03-28T22:59:01.674Z,17.11
2023-03-28T23:01:30.436Z,17.11
2023-03-28T23:03:59.681Z,17.10
2023-03-28T23:06:28.802Z,17.11
2023-03-28T23:08:58.933Z,17.11
2023-03-28T23:11:27.781Z,17.10
2023-03-28T23:13:56.788Z,17.09
2023-03-28T23:16:25.298Z,17.09
2023-03-28T23:18:54.175Z,17.10
2023-03-28T23:21:23.200Z,17.09
2023-03-28T23:23:53.570Z,17.09
2023-03-28T23:26:23.180Z,17.08
2023-03-28T23:28:52.069Z,17.07
2023-03-28T23:31:21.142Z,17.06
2023-03-28T23:33:50.064Z,17.07
2023-03-28T23:36:21.274Z,17.05
2023-03-28T23:38:50.310Z,17.09
2023-03-28T23:41:18.887Z,17.07
2023-03-28T23:43:47.800Z,17.07
2023-03-28T23:46:16.495Z,17.07
2023-03-28T23:48:45.469Z,17.07
2023-03-28T23:51:14.383Z,17.07
2023-03-28T23:53:43.370Z,17.07
2023-03-28T23:56:12.291Z,17.06
2023-03-28T23:58:41.387Z,17.07
